createdAt,value
2022-10-03T08:45:31.596Z,88.69
2022-10-03T08:47:02.423Z,87.93
2022-10-03T08:48:38.021Z,84.93
2022-10-03T08:49:52.114Z,81.44
2022-10-03T08:51:08.160Z,79.29
2022-10-03T08:52:24.685Z,75.89
2022-10-03T08:53:51.920Z,74.14
2022-10-03T08:55:16.994Z,73.10
2022-10-03T08:56:27.668Z,76.71
2022-10-03T09:05:16.735Z,74.24
2022-10-03T09:06:33.118Z,70.10
2022-10-03T09:08:16.411Z,67.78
2022-10-03T09:09:55.345Z,62.83
2022-10-03T09:11:21.148Z,62.72
2022-10-03T09:12:50.373Z,66.11
2022-10-03T09:14:16.219Z,66.19
2022-10-03T09:15:50.074Z,64.32
2022-10-03T09:16:55.990Z,63.58
2022-10-03T09:18:00.403Z,62.06
2022-10-03T09:19:54.101Z,60.82
2022-10-03T09:21:23.130Z,57.04
2022-10-03T09:22:24.630Z,57.69
2022-10-03T09:23:44.065Z,51.41
2022-10-03T09:24:55.106Z,53.89
2022-10-03T09:26:31.676Z,54.26
2022-10-03T09:28:25.650Z,49.79
2022-10-03T09:29:45.821Z,52.21
2022-10-03T09:31:12.880Z,50.96
2022-10-03T09:32:36.641Z,49.32
2022-10-03T09:33:40.771Z,52.50
2022-10-03T09:35:19.557Z,50.65
2022-10-03T09:36:31.276Z,51.65
2022-10-03T09:37:51.585Z,48.76
2022-10-03T09:39:14.679Z,50.72
2022-10-03T09:40:39.345Z,50.49
2022-10-03T09:42:18.897Z,48.69
2022-10-03T09:43:44.431Z,52.80
2022-10-03T09:47:56.464Z,60.59
2022-10-03T09:49:21.771Z,58.68
2022-10-03T09:50:36.451Z,57.57
2022-10-03T09:52:12.721Z,56.68
2022-10-03T09:53:32.556Z,57.85
2022-10-03T09:54:44.110Z,58.12
2022-10-03T10:08:04.982Z,47.63
2022-10-03T10:09:30.601Z,49.34
2022-10-03T10:10:45.178Z,48.62
2022-10-03T10:12:23.982Z,50.24
2022-10-03T10:14:07.064Z,51.56
2022-10-03T10:15:20.950Z,55.22
2022-10-03T10:16:34.850Z,57.35
2022-10-03T10:18:14.953Z,57.71
2022-10-03T10:19:31.101Z,59.03
2022-10-03T10:20:39.180Z,62.01
2022-10-03T10:22:31.024Z,62.40
2022-10-03T10:23:51.596Z,64.69
2022-10-03T10:26:41.968Z,58.69
2022-10-03T10:28:14.575Z,53.28
2022-10-03T10:29:43.406Z,47.50
2022-10-03T10:30:47.733Z,49.34
2022-10-03T10:31:52.995Z,48.92
2022-10-03T10:33:42.118Z,49.38
2022-10-03T10:34:49.711Z,53.43
2022-10-03T10:36:28.485Z,52.10
2022-10-03T10:37:48.272Z,55.62
2022-10-03T10:39:28.495Z,58.10
2022-10-03T10:40:47.070Z,62.90
2022-10-03T10:42:24.015Z,65.56
2022-10-03T10:44:07.085Z,66.89
2022-10-03T11:30:38.033Z,57.71
2022-10-03T11:32:14.158Z,53.51
2022-10-03T11:33:40.308Z,61.23
2022-10-03T11:35:24.645Z,56.59
2022-10-03T11:42:05.551Z,53.66
2022-10-03T11:43:44.364Z,54.95
2022-10-03T11:45:07.794Z,56.67
2022-10-03T11:46:27.607Z,62.64
2022-10-03T12:22:29.477Z,64.19
2022-10-03T12:24:41.341Z,61.97
2022-10-03T12:25:45.952Z,59.59
2022-10-03T12:27:00.129Z,55.67
2022-10-03T12:28:41.915Z,51.63
2022-10-03T12:29:53.210Z,49.21
2022-10-03T12:31:01.251Z,53.79
2022-10-03T12:32:32.124Z,54.11
2022-10-03T12:33:58.329Z,56.59
2022-10-03T12:35:17.670Z,55.02
2022-10-03T12:42:02.189Z,53.90
2022-10-03T12:43:43.372Z,53.75
2022-10-03T12:45:04.312Z,50.57
2022-10-03T12:46:26.896Z,48.10
2022-10-03T12:47:51.184Z,46.35
2022-10-03T12:49:07.313Z,44.74
2022-10-03T12:50:17.479Z,48.31
2022-10-03T12:51:47.900Z,49.61
2022-10-03T12:53:30.953Z,50.68
2022-10-03T12:55:09.178Z,50.34
2022-10-03T12:56:28.654Z,50.17
2022-10-03T12:58:14.681Z,49.58
2022-10-03T12:59:31.752Z,49.73
2022-10-03T13:00:48.544Z,48.40
2022-10-03T13:02:02.572Z,48.19
2022-10-03T13:03:29.024Z,48.17
2022-10-03T13:04:57.644Z,45.93
2022-10-03T13:11:07.178Z,47.07
2022-10-03T13:12:28.017Z,45.74
2022-10-03T13:13:51.540Z,48.03
2022-10-03T13:15:30.620Z,49.07
2022-10-03T13:16:39.848Z,49.52
2022-10-03T13:23:05.032Z,51.67
2022-10-03T13:24:09.383Z,50.03
2022-10-03T13:25:25.282Z,51.40
2022-10-03T13:26:51.514Z,50.71
2022-10-03T13:28:07.794Z,50.58
2022-10-03T13:29:38.919Z,48.53
2022-10-03T13:30:49.229Z,49.32
2022-10-03T13:32:02.489Z,47.68
2022-10-03T13:33:17.896Z,46.69
2022-10-03T13:34:22.669Z,47.86
2022-10-03T13:35:58.537Z,53.54
2022-10-03T13:37:09.817Z,56.18
2022-10-03T13:38:26.309Z,54.43
2022-10-03T13:39:44.297Z,54.42
2022-10-03T13:47:46.947Z,53.98
2022-10-03T13:49:01.806Z,55.15
2022-10-03T13:50:21.352Z,54.89
2022-10-03T13:51:41.298Z,54.48
2022-10-03T13:52:52.057Z,55.64
2022-10-03T13:59:05.643Z,56.72
2022-10-03T14:00:15.114Z,58.43
2022-10-03T14:01:27.135Z,57.39
2022-10-03T14:02:48.671Z,58.02
2022-10-03T14:03:56.281Z,56.87
2022-10-03T14:05:00.833Z,56.40
2022-10-03T14:06:22.362Z,56.55
2022-10-03T14:07:35.882Z,56.65
2022-10-03T14:09:02.748Z,55.94
2022-10-03T14:10:04.039Z,56.13
2022-10-03T14:11:22.683Z,56.46
2022-10-03T14:13:06.521Z,54.35
2022-10-03T14:14:23.918Z,57.49
2022-10-03T14:15:49.002Z,55.17
2022-10-03T14:16:56.522Z,54.81
2022-10-03T14:18:16.530Z,54.38
2022-10-03T14:19:54.133Z,53.26
2022-10-03T14:20:56.263Z,52.15
2022-10-03T14:22:33.228Z,52.62
2022-10-03T14:23:48.214Z,49.84
2022-10-03T14:25:11.460Z,52.68
2022-10-03T14:26:15.931Z,51.77
2022-10-03T14:27:36.392Z,50.81
2022-10-03T14:28:46.971Z,49.96
2022-10-03T14:29:57.292Z,50.03
2022-10-03T14:31:27.529Z,50.39
2022-10-03T14:32:48.008Z,53.30
2022-10-03T14:34:16.769Z,54.16
2022-10-03T14:47:27.496Z,52.40
2022-10-03T14:48:36.450Z,50.68
2022-10-03T14:49:54.803Z,51.99
2022-10-03T14:51:08.774Z,51.46
2022-10-03T14:52:28.731Z,52.37
2022-10-03T15:05:24.151Z,57.62
2022-10-03T15:06:41.992Z,57.97
2022-10-03T15:07:46.363Z,58.69
2022-10-03T15:08:57.572Z,57.98
2022-10-03T15:10:01.047Z,58.89
2022-10-03T15:17:20.954Z,55.13
2022-10-03T15:18:24.340Z,55.01
2022-10-03T15:19:36.198Z,55.78
2022-10-03T15:20:41.709Z,56.00
2022-10-03T15:21:45.444Z,57.09
2022-10-03T15:22:53.771Z,56.92
2022-10-03T15:24:03.553Z,57.48
2022-10-03T15:25:17.729Z,58.31
2022-10-03T15:26:21.780Z,59.79
2022-10-03T15:27:24.722Z,59.75
2022-10-03T15:29:03.782Z,59.22
2022-10-03T15:30:06.360Z,58.60
2022-10-03T15:31:14.341Z,58.52
2022-10-03T15:32:39.418Z,57.85
2022-10-03T15:33:43.082Z,56.88
2022-10-03T15:34:49.127Z,56.89
2022-10-03T15:35:55.224Z,57.69
2022-10-03T15:37:15.725Z,58.22
2022-10-03T15:38:27.183Z,58.67
2022-10-03T15:39:35.428Z,58.88
2022-10-03T15:40:50.890Z,61.25
2022-10-03T15:42:03.589Z,61.20
2022-10-03T15:43:32.504Z,61.21
2022-10-03T15:44:39.999Z,61.56
2022-10-03T15:45:42.892Z,61.64
2022-10-03T15:46:58.302Z,61.79
2022-10-03T15:48:04.355Z,62.86
2022-10-03T15:49:17.852Z,63.14
2022-10-03T15:50:24.963Z,63.43
2022-10-03T15:51:30.137Z,63.88
2022-10-03T15:52:40.135Z,64.27
2022-10-03T16:17:03.994Z,67.58
2022-10-03T16:18:31.312Z,68.09
2022-10-03T16:19:41.150Z,68.71
2022-10-03T16:20:47.378Z,69.39
2022-10-03T16:22:05.429Z,69.39
2022-10-03T16:23:29.678Z,69.73
2022-10-03T16:24:39.544Z,69.83
